sensor_id;sensor_type;location;lat;lon;timestamp;P1;durP1;ratioP1;P2;durP2;ratioP2
21202;SDS011;10759;51.982;9.232;2022-11-15T00:00:18;14.13;;;12.82;;
21202;SDS011;10759;51.982;9.232;2022-11-15T00:03:06;14.32;;;13.18;;
21202;SDS011;10759;51.982;9.232;2022-11-15T00:05:52;13.73;;;12.52;;
21202;SDS011;10759;51.982;9.232;2022-11-15T00:08:41;13.77;;;12.13;;
21202;SDS011;10759;51.982;9.232;2022-11-15T00:11:28;14.27;;;12.88;;
21202;SDS011;10759;51.982;9.232;2022-11-15T00:14:14;15.88;;;14.45;;
21202;SDS011;10759;51.982;9.232;2022-11-15T00:17:01;14.27;;;12.88;;
21202;SDS011;10759;51.982;9.232;2022-11-15T00:19:47;14.30;;;13.10;;
21202;SDS011;10759;51.982;9.232;2022-11-15T00:22:34;14.43;;;13.05;;
21202;SDS011;10759;51.982;9.232;2022-11-15T00:25:22;14.77;;;13.50;;
21202;SDS011;10759;51.982;9.232;2022-11-15T00:28:09;16.48;;;14.57;;
21202;SDS011;10759;51.982;9.232;2022-11-15T00:30:59;14.73;;;13.23;;
21202;SDS011;10759;51.982;9.232;2022-11-15T00:33:46;15.68;;;14.25;;
21202;SDS011;10759;51.982;9.232;2022-11-15T00:36:33;16.15;;;14.73;;
21202;SDS011;10759;51.982;9.232;2022-11-15T00:39:20;16.25;;;14.55;;
21202;SDS011;10759;51.982;9.232;2022-11-15T00:42:08;15.52;;;14.00;;
21202;SDS011;10759;51.982;9.232;2022-11-15T00:44:55;15.55;;;14.07;;
21202;SDS011;10759;51.982;9.232;2022-11-15T00:47:43;18.30;;;13.57;;
21202;SDS011;10759;51.982;9.232;2022-11-15T00:50:30;18.92;;;15.88;;
21202;SDS011;10759;51.982;9.232;2022-11-15T00:53:17;18.30;;;16.58;;
21202;SDS011;10759;51.982;9.232;2022-11-15T00:56:04;18.85;;;16.50;;
21202;SDS011;10759;51.982;9.232;2022-11-15T00:58:52;19.25;;;17.38;;
21202;SDS011;10759;51.982;9.232;2022-11-15T01:01:39;20.48;;;18.25;;
21202;SDS011;10759;51.982;9.232;2022-11-15T01:04:25;18.83;;;17.05;;
21202;SDS011;10759;51.982;9.232;2022-11-15T01:07:12;17.42;;;15.68;;
21202;SDS011;10759;51.982;9.232;2022-11-15T01:09:59;17.50;;;15.65;;
21202;SDS011;10759;51.982;9.232;2022-11-15T01:12:46;19.45;;;16.30;;
21202;SDS011;10759;51.982;9.232;2022-11-15T01:15:34;20.42;;;16.33;;
21202;SDS011;10759;51.982;9.232;2022-11-15T01:18:21;19.80;;;16.73;;
21202;SDS011;10759;51.982;9.232;2022-11-15T01:21:08;19.17;;;17.30;;
21202;SDS011;10759;51.982;9.232;2022-11-15T01:23:56;20.52;;;17.27;;
21202;SDS011;10759;51.982;9.232;2022-11-15T01:26:43;18.42;;;16.52;;
21202;SDS011;10759;51.982;9.232;2022-11-15T01:29:29;18.17;;;15.77;;
21202;SDS011;10759;51.982;9.232;2022-11-15T01:32:17;17.63;;;15.35;;
21202;SDS011;10759;51.982;9.232;2022-11-15T01:35:04;16.55;;;15.18;;
21202;SDS011;10759;51.982;9.232;2022-11-15T01:37:51;17.20;;;15.40;;
21202;SDS011;10759;51.982;9.232;2022-11-15T01:40:38;17.30;;;15.60;;
21202;SDS011;10759;51.982;9.232;2022-11-15T01:43:27;17.40;;;15.60;;
21202;SDS011;10759;51.982;9.232;2022-11-15T01:46:21;17.20;;;15.70;;
21202;SDS011;10759;51.982;9.232;2022-11-15T01:49:13;16.70;;;15.13;;
21202;SDS011;10759;51.982;9.232;2022-11-15T01:52:04;18.17;;;15.02;;
21202;SDS011;10759;51.982;9.232;2022-11-15T01:54:54;17.35;;;15.88;;
21202;SDS011;10759;51.982;9.232;2022-11-15T01:57:44;17.13;;;15.45;;
21202;SDS011;10759;51.982;9.232;2022-11-15T02:00:34;18.70;;;15.93;;
21202;SDS011;10759;51.982;9.232;2022-11-15T02:03:21;18.77;;;16.73;;
21202;SDS011;10759;51.982;9.232;2022-11-15T02:06:14;17.33;;;15.80;;
21202;SDS011;10759;51.982;9.232;2022-11-15T02:09:01;17.60;;;16.05;;
21202;SDS011;10759;51.982;9.232;2022-11-15T02:11:48;17.23;;;15.70;;
21202;SDS011;10759;51.982;9.232;2022-11-15T02:14:36;19.40;;;17.50;;
21202;SDS011;10759;51.982;9.232;2022-11-15T02:17:31;18.58;;;16.67;;
21202;SDS011;10759;51.982;9.232;2022-11-15T02:20:30;21.50;;;17.52;;
21202;SDS011;10759;51.982;9.232;2022-11-15T02:23:45;19.83;;;17.65;;
21202;SDS011;10759;51.982;9.232;2022-11-15T02:26:56;20.98;;;18.92;;
21202;SDS011;10759;51.982;9.232;2022-11-15T02:33:11;27.25;;;18.75;;
21202;SDS011;10759;51.982;9.232;2022-11-15T02:36:09;20.75;;;18.88;;
21202;SDS011;10759;51.982;9.232;2022-11-15T02:39:02;20.08;;;18.15;;
21202;SDS011;10759;51.982;9.232;2022-11-15T02:41:53;18.98;;;16.98;;
21202;SDS011;10759;51.982;9.232;2022-11-15T02:44:44;20.65;;;18.50;;
21202;SDS011;10759;51.982;9.232;2022-11-15T02:47:33;19.23;;;17.33;;
21202;SDS011;10759;51.982;9.232;2022-11-15T02:50:28;20.08;;;17.33;;
21202;SDS011;10759;51.982;9.232;2022-11-15T02:53:17;21.33;;;17.30;;
21202;SDS011;10759;51.982;9.232;2022-11-15T02:56:04;21.50;;;17.42;;
21202;SDS011;10759;51.982;9.232;2022-11-15T02:59:00;18.42;;;16.80;;
21202;SDS011;10759;51.982;9.232;2022-11-15T03:02:03;17.83;;;15.93;;
21202;SDS011;10759;51.982;9.232;2022-11-15T03:05:04;17.85;;;16.08;;
21202;SDS011;10759;51.982;9.232;2022-11-15T03:08:01;19.13;;;17.17;;
21202;SDS011;10759;51.982;9.232;2022-11-15T03:10:54;17.85;;;16.02;;
21202;SDS011;10759;51.982;9.232;2022-11-15T03:13:53;18.02;;;16.52;;
21202;SDS011;10759;51.982;9.232;2022-11-15T03:16:44;17.58;;;15.98;;
21202;SDS011;10759;51.982;9.232;2022-11-15T03:19:38;16.70;;;15.02;;
21202;SDS011;10759;51.982;9.232;2022-11-15T03:22:32;18.48;;;16.65;;
21202;SDS011;10759;51.982;9.232;2022-11-15T03:25:23;15.57;;;14.27;;
21202;SDS011;10759;51.982;9.232;2022-11-15T03:28:12;20.35;;;15.48;;
21202;SDS011;10759;51.982;9.232;2022-11-15T03:31:10;15.25;;;13.65;;
21202;SDS011;10759;51.982;9.232;2022-11-15T03:34:15;17.20;;;14.43;;
21202;SDS011;10759;51.982;9.232;2022-11-15T03:37:07;16.70;;;14.00;;
21202;SDS011;10759;51.982;9.232;2022-11-15T03:39:59;15.35;;;13.85;;
21202;SDS011;10759;51.982;9.232;2022-11-15T03:42:46;15.98;;;14.38;;
21202;SDS011;10759;51.982;9.232;2022-11-15T03:45:41;16.50;;;14.63;;
21202;SDS011;10759;51.982;9.232;2022-11-15T03:48:33;14.15;;;12.68;;
21202;SDS011;10759;51.982;9.232;2022-11-15T03:51:23;13.63;;;12.38;;
21202;SDS011;10759;51.982;9.232;2022-11-15T03:54:10;14.52;;;12.23;;
21202;SDS011;10759;51.982;9.232;2022-11-15T03:56:59;14.23;;;12.63;;
21202;SDS011;10759;51.982;9.232;2022-11-15T03:59:46;14.15;;;12.75;;
21202;SDS011;10759;51.982;9.232;2022-11-15T04:02:32;14.23;;;12.82;;
21202;SDS011;10759;51.982;9.232;2022-11-15T04:05:19;14.43;;;12.60;;
21202;SDS011;10759;51.982;9.232;2022-11-15T04:08:07;13.77;;;12.18;;
21202;SDS011;10759;51.982;9.232;2022-11-15T04:10:53;16.02;;;14.55;;
21202;SDS011;10759;51.982;9.232;2022-11-15T04:13:41;14.68;;;13.32;;
21202;SDS011;10759;51.982;9.232;2022-11-15T04:16:28;15.07;;;13.43;;
21202;SDS011;10759;51.982;9.232;2022-11-15T04:19:14;14.05;;;12.63;;
21202;SDS011;10759;51.982;9.232;2022-11-15T04:22:18;15.65;;;13.93;;
21202;SDS011;10759;51.982;9.232;2022-11-15T04:25:37;14.05;;;12.60;;
21202;SDS011;10759;51.982;9.232;2022-11-15T04:28:23;15.60;;;14.15;;
21202;SDS011;10759;51.982;9.232;2022-11-15T04:31:11;13.27;;;11.90;;
21202;SDS011;10759;51.982;9.232;2022-11-15T04:33:57;12.25;;;11.15;;
21202;SDS011;10759;51.982;9.232;2022-11-15T04:36:44;14.25;;;13.02;;
21202;SDS011;10759;51.982;9.232;2022-11-15T04:39:48;15.90;;;14.45;;
21202;SDS011;10759;51.982;9.232;2022-11-15T04:42:35;15.63;;;14.23;;
21202;SDS011;10759;51.982;9.232;2022-11-15T04:45:21;14.07;;;12.80;;
21202;SDS011;10759;51.982;9.232;2022-11-15T04:48:10;14.15;;;12.85;;
21202;SDS011;10759;51.982;9.232;2022-11-15T04:50:57;15.07;;;13.77;;
21202;SDS011;10759;51.982;9.232;2022-11-15T04:53:44;13.60;;;12.32;;
21202;SDS011;10759;51.982;9.232;2022-11-15T04:56:31;14.05;;;12.63;;
21202;SDS011;10759;51.982;9.232;2022-11-15T04:59:18;16.27;;;13.10;;
21202;SDS011;10759;51.982;9.232;2022-11-15T05:02:04;14.80;;;13.43;;
21202;SDS011;10759;51.982;9.232;2022-11-15T05:04:52;13.63;;;12.27;;
21202;SDS011;10759;51.982;9.232;2022-11-15T05:07:38;12.68;;;11.52;;
21202;SDS011;10759;51.982;9.232;2022-11-15T05:10:25;12.70;;;11.48;;
21202;SDS011;10759;51.982;9.232;2022-11-15T05:13:11;13.00;;;11.77;;
21202;SDS011;10759;51.982;9.232;2022-11-15T05:15:58;12.38;;;11.38;;
21202;SDS011;10759;51.982;9.232;2022-11-15T05:18:45;10.75;;;9.70;;
21202;SDS011;10759;51.982;9.232;2022-11-15T05:21:33;13.23;;;11.82;;
21202;SDS011;10759;51.982;9.232;2022-11-15T05:24:19;11.50;;;10.43;;
21202;SDS011;10759;51.982;9.232;2022-11-15T05:27:06;11.32;;;10.15;;
21202;SDS011;10759;51.982;9.232;2022-11-15T05:29:53;12.52;;;11.32;;
21202;SDS011;10759;51.982;9.232;2022-11-15T05:32:40;15.98;;;14.35;;
21202;SDS011;10759;51.982;9.232;2022-11-15T05:35:29;12.10;;;10.05;;
21202;SDS011;10759;51.982;9.232;2022-11-15T05:38:19;21.00;;;16.05;;
21202;SDS011;10759;51.982;9.232;2022-11-15T05:41:05;19.15;;;16.38;;
21202;SDS011;10759;51.982;9.232;2022-11-15T05:43:53;15.30;;;11.68;;
21202;SDS011;10759;51.982;9.232;2022-11-15T05:46:39;10.10;;;9.18;;
21202;SDS011;10759;51.982;9.232;2022-11-15T05:49:29;10.40;;;9.30;;
21202;SDS011;10759;51.982;9.232;2022-11-15T05:52:18;12.10;;;9.90;;
21202;SDS011;10759;51.982;9.232;2022-11-15T05:55:10;9.98;;;9.18;;
21202;SDS011;10759;51.982;9.232;2022-11-15T05:57:56;11.90;;;10.27;;
21202;SDS011;10759;51.982;9.232;2022-11-15T06:00:43;12.10;;;10.75;;
21202;SDS011;10759;51.982;9.232;2022-11-15T06:03:30;8.98;;;8.27;;
21202;SDS011;10759;51.982;9.232;2022-11-15T06:06:17;9.95;;;9.00;;
21202;SDS011;10759;51.982;9.232;2022-11-15T06:09:03;10.93;;;9.88;;
21202;SDS011;10759;51.982;9.232;2022-11-15T06:11:51;13.00;;;9.18;;
21202;SDS011;10759;51.982;9.232;2022-11-15T06:14:38;9.52;;;8.68;;
21202;SDS011;10759;51.982;9.232;2022-11-15T06:17:25;10.07;;;8.85;;
21202;SDS011;10759;51.982;9.232;2022-11-15T06:20:11;9.10;;;8.23;;
21202;SDS011;10759;51.982;9.232;2022-11-15T06:22:58;9.35;;;8.40;;
21202;SDS011;10759;51.982;9.232;2022-11-15T06:25:45;10.02;;;9.13;;
21202;SDS011;10759;51.982;9.232;2022-11-15T06:28:33;10.75;;;9.65;;
21202;SDS011;10759;51.982;9.232;2022-11-15T06:31:20;9.23;;;8.43;;
21202;SDS011;10759;51.982;9.232;2022-11-15T06:34:07;10.95;;;8.40;;
21202;SDS011;10759;51.982;9.232;2022-11-15T06:36:53;9.82;;;9.00;;
21202;SDS011;10759;51.982;9.232;2022-11-15T06:39:40;9.98;;;8.98;;
21202;SDS011;10759;51.982;9.232;2022-11-15T06:42:26;9.82;;;8.85;;
21202;SDS011;10759;51.982;9.232;2022-11-15T06:45:14;10.27;;;8.52;;
21202;SDS011;10759;51.982;9.232;2022-11-15T06:48:00;8.82;;;8.02;;
21202;SDS011;10759;51.982;9.232;2022-11-15T06:50:49;10.13;;;9.23;;
21202;SDS011;10759;51.982;9.232;2022-11-15T06:53:36;9.13;;;8.30;;
21202;SDS011;10759;51.982;9.232;2022-11-15T06:56:23;9.48;;;8.23;;
21202;SDS011;10759;51.982;9.232;2022-11-15T06:59:09;10.82;;;7.35;;
21202;SDS011;10759;51.982;9.232;2022-11-15T07:01:57;8.25;;;7.45;;
21202;SDS011;10759;51.982;9.232;2022-11-15T07:04:44;9.35;;;8.55;;
21202;SDS011;10759;51.982;9.232;2022-11-15T07:07:31;9.40;;;8.45;;
21202;SDS011;10759;51.982;9.232;2022-11-15T07:10:17;9.55;;;7.72;;
21202;SDS011;10759;51.982;9.232;2022-11-15T07:13:04;9.30;;;8.38;;
21202;SDS011;10759;51.982;9.232;2022-11-15T07:15:51;8.52;;;7.72;;
21202;SDS011;10759;51.982;9.232;2022-11-15T07:18:39;11.43;;;8.90;;
21202;SDS011;10759;51.982;9.232;2022-11-15T07:21:27;9.52;;;8.50;;
21202;SDS011;10759;51.982;9.232;2022-11-15T07:24:13;11.35;;;8.70;;
21202;SDS011;10759;51.982;9.232;2022-11-15T07:26:59;8.70;;;7.90;;
21202;SDS011;10759;51.982;9.232;2022-11-15T07:29:46;8.32;;;7.53;;
21202;SDS011;10759;51.982;9.232;2022-11-15T07:32:34;15.35;;;8.85;;
21202;SDS011;10759;51.982;9.232;2022-11-15T07:35:22;10.95;;;7.97;;
21202;SDS011;10759;51.982;9.232;2022-11-15T07:38:09;10.32;;;6.93;;
21202;SDS011;10759;51.982;9.232;2022-11-15T07:40:56;9.52;;;8.60;;
21202;SDS011;10759;51.982;9.232;2022-11-15T07:43:43;8.13;;;7.32;;
21202;SDS011;10759;51.982;9.232;2022-11-15T07:46:29;8.40;;;7.65;;
21202;SDS011;10759;51.982;9.232;2022-11-15T07:49:16;8.40;;;7.60;;
21202;SDS011;10759;51.982;9.232;2022-11-15T07:52:04;8.13;;;7.32;;
21202;SDS011;10759;51.982;9.232;2022-11-15T07:54:51;7.22;;;6.50;;
21202;SDS011;10759;51.982;9.232;2022-11-15T07:57:37;7.05;;;6.40;;
21202;SDS011;10759;51.982;9.232;2022-11-15T08:00:24;7.00;;;6.40;;
21202;SDS011;10759;51.982;9.232;2022-11-15T08:03:11;8.93;;;8.02;;
21202;SDS011;10759;51.982;9.232;2022-11-15T08:05:59;8.20;;;7.00;;
21202;SDS011;10759;51.982;9.232;2022-11-15T08:08:47;7.45;;;6.60;;
21202;SDS011;10759;51.982;9.232;2022-11-15T08:11:34;9.40;;;6.15;;
21202;SDS011;10759;51.982;9.232;2022-11-15T08:14:21;6.32;;;5.72;;
21202;SDS011;10759;51.982;9.232;2022-11-15T08:17:08;7.13;;;5.13;;
21202;SDS011;10759;51.982;9.232;2022-11-15T08:19:54;6.78;;;6.20;;
21202;SDS011;10759;51.982;9.232;2022-11-15T08:22:40;6.70;;;5.72;;
21202;SDS011;10759;51.982;9.232;2022-11-15T08:25:29;6.32;;;5.65;;
21202;SDS011;10759;51.982;9.232;2022-11-15T08:28:17;6.20;;;5.00;;
21202;SDS011;10759;51.982;9.232;2022-11-15T08:31:03;6.88;;;5.70;;
21202;SDS011;10759;51.982;9.232;2022-11-15T08:33:50;5.25;;;4.50;;
21202;SDS011;10759;51.982;9.232;2022-11-15T08:36:37;5.40;;;4.88;;
21202;SDS011;10759;51.982;9.232;2022-11-15T08:42:18;5.97;;;4.43;;
21202;SDS011;10759;51.982;9.232;2022-11-15T08:45:05;4.15;;;3.85;;
21202;SDS011;10759;51.982;9.232;2022-11-15T08:47:53;4.20;;;3.83;;
21202;SDS011;10759;51.982;9.232;2022-11-15T08:50:40;3.60;;;3.30;;
21202;SDS011;10759;51.982;9.232;2022-11-15T08:53:28;3.65;;;3.35;;
21202;SDS011;10759;51.982;9.232;2022-11-15T08:56:15;5.85;;;3.95;;
21202;SDS011;10759;51.982;9.232;2022-11-15T08:59:03;4.57;;;3.58;;
21202;SDS011;10759;51.982;9.232;2022-11-15T09:01:50;3.80;;;3.40;;
21202;SDS011;10759;51.982;9.232;2022-11-15T09:04:39;4.10;;;3.58;;
21202;SDS011;10759;51.982;9.232;2022-11-15T09:07:25;8.07;;;4.63;;
21202;SDS011;10759;51.982;9.232;2022-11-15T09:10:15;4.47;;;4.07;;
21202;SDS011;10759;51.982;9.232;2022-11-15T09:13:01;5.13;;;4.10;;
21202;SDS011;10759;51.982;9.232;2022-11-15T09:15:49;5.97;;;5.07;;
21202;SDS011;10759;51.982;9.232;2022-11-15T09:18:36;4.65;;;3.90;;
21202;SDS011;10759;51.982;9.232;2022-11-15T09:21:23;4.35;;;3.30;;
21202;SDS011;10759;51.982;9.232;2022-11-15T09:24:09;4.70;;;4.25;;
21202;SDS011;10759;51.982;9.232;2022-11-15T09:26:56;4.32;;;3.70;;
21202;SDS011;10759;51.982;9.232;2022-11-15T09:29:42;4.25;;;3.67;;
21202;SDS011;10759;51.982;9.232;2022-11-15T09:32:30;3.35;;;3.10;;
21202;SDS011;10759;51.982;9.232;2022-11-15T09:35:23;4.07;;;3.78;;
21202;SDS011;10759;51.982;9.232;2022-11-15T09:38:10;4.45;;;4.00;;
21202;SDS011;10759;51.982;9.232;2022-11-15T09:41:12;4.55;;;4.05;;
21202;SDS011;10759;51.982;9.232;2022-11-15T09:44:22;3.75;;;3.33;;
21202;SDS011;10759;51.982;9.232;2022-11-15T09:50:38;4.55;;;3.30;;
21202;SDS011;10759;51.982;9.232;2022-11-15T09:53:11;3.97;;;3.67;;
21202;SDS011;10759;51.982;9.232;2022-11-15T09:55:43;6.20;;;3.58;;
21202;SDS011;10759;51.982;9.232;2022-11-15T09:58:21;3.95;;;3.65;;
21202;SDS011;10759;51.982;9.232;2022-11-15T10:00:55;3.47;;;3.03;;
21202;SDS011;10759;51.982;9.232;2022-11-15T10:03:30;4.10;;;3.53;;
21202;SDS011;10759;51.982;9.232;2022-11-15T10:06:03;3.88;;;3.58;;
21202;SDS011;10759;51.982;9.232;2022-11-15T10:11:09;3.15;;;2.88;;
21202;SDS011;10759;51.982;9.232;2022-11-15T10:14:04;3.72;;;3.25;;
21202;SDS011;10759;51.982;9.232;2022-11-15T10:16:46;3.95;;;3.28;;
21202;SDS011;10759;51.982;9.232;2022-11-15T10:19:56;4.50;;;4.10;;
21202;SDS011;10759;51.982;9.232;2022-11-15T10:22:35;3.60;;;3.30;;
21202;SDS011;10759;51.982;9.232;2022-11-15T10:25:12;3.78;;;3.33;;
21202;SDS011;10759;51.982;9.232;2022-11-15T10:27:45;3.72;;;3.42;;
21202;SDS011;10759;51.982;9.232;2022-11-15T10:30:20;4.28;;;3.88;;
21202;SDS011;10759;51.982;9.232;2022-11-15T10:32:48;4.93;;;4.45;;
21202;SDS011;10759;51.982;9.232;2022-11-15T10:35:20;6.90;;;4.25;;
21202;SDS011;10759;51.982;9.232;2022-11-15T10:37:51;5.18;;;4.25;;
21202;SDS011;10759;51.982;9.232;2022-11-15T10:40:20;6.03;;;5.20;;
21202;SDS011;10759;51.982;9.232;2022-11-15T10:43:03;4.82;;;4.30;;
21202;SDS011;10759;51.982;9.232;2022-11-15T10:45:33;5.25;;;3.85;;
21202;SDS011;10759;51.982;9.232;2022-11-15T10:48:18;4.22;;;3.83;;
21202;SDS011;10759;51.982;9.232;2022-11-15T10:50:51;5.40;;;3.95;;
21202;SDS011;10759;51.982;9.232;2022-11-15T10:53:22;4.47;;;3.95;;
21202;SDS011;10759;51.982;9.232;2022-11-15T10:55:58;3.95;;;3.65;;
21202;SDS011;10759;51.982;9.232;2022-11-15T10:58:33;4.68;;;4.00;;
21202;SDS011;10759;51.982;9.232;2022-11-15T11:01:11;5.68;;;3.97;;
21202;SDS011;10759;51.982;9.232;2022-11-15T11:03:42;4.20;;;3.80;;
21202;SDS011;10759;51.982;9.232;2022-11-15T11:06:13;5.43;;;3.60;;
21202;SDS011;10759;51.982;9.232;2022-11-15T11:08:53;4.35;;;4.05;;
21202;SDS011;10759;51.982;9.232;2022-11-15T11:11:23;4.90;;;4.50;;
21202;SDS011;10759;51.982;9.232;2022-11-15T11:13:52;3.85;;;3.42;;
21202;SDS011;10759;51.982;9.232;2022-11-15T11:16:24;4.38;;;3.97;;
21202;SDS011;10759;51.982;9.232;2022-11-15T11:19:08;6.18;;;4.25;;
21202;SDS011;10759;51.982;9.232;2022-11-15T11:21:49;4.05;;;3.60;;
21202;SDS011;10759;51.982;9.232;2022-11-15T11:24:25;4.10;;;3.70;;
21202;SDS011;10759;51.982;9.232;2022-11-15T11:27:05;6.70;;;3.70;;
21202;SDS011;10759;51.982;9.232;2022-11-15T11:29:50;5.32;;;3.80;;
21202;SDS011;10759;51.982;9.232;2022-11-15T11:32:30;3.85;;;3.50;;
21202;SDS011;10759;51.982;9.232;2022-11-15T11:35:22;5.65;;;4.22;;
21202;SDS011;10759;51.982;9.232;2022-11-15T11:37:58;3.22;;;2.97;;
21202;SDS011;10759;51.982;9.232;2022-11-15T11:40:43;3.60;;;3.30;;
21202;SDS011;10759;51.982;9.232;2022-11-15T11:43:30;3.90;;;3.47;;
21202;SDS011;10759;51.982;9.232;2022-11-15T11:46:12;4.55;;;3.83;;
21202;SDS011;10759;51.982;9.232;2022-11-15T11:48:55;3.75;;;3.45;;
21202;SDS011;10759;51.982;9.232;2022-11-15T11:51:32;3.50;;;3.20;;
21202;SDS011;10759;51.982;9.232;2022-11-15T11:54:10;3.38;;;3.08;;
21202;SDS011;10759;51.982;9.232;2022-11-15T11:56:43;2.83;;;2.63;;
21202;SDS011;10759;51.982;9.232;2022-11-15T11:59:21;4.95;;;2.97;;
21202;SDS011;10759;51.982;9.232;2022-11-15T12:01:53;3.30;;;3.00;;
21202;SDS011;10759;51.982;9.232;2022-11-15T12:04:24;3.83;;;3.08;;
21202;SDS011;10759;51.982;9.232;2022-11-15T12:06:58;3.00;;;2.70;;
21202;SDS011;10759;51.982;9.232;2022-11-15T12:09:30;2.80;;;2.60;;
21202;SDS011;10759;51.982;9.232;2022-11-15T12:12:06;3.45;;;2.70;;
21202;SDS011;10759;51.982;9.232;2022-11-15T12:14:38;3.97;;;3.40;;
21202;SDS011;10759;51.982;9.232;2022-11-15T12:17:12;4.13;;;2.90;;
21202;SDS011;10759;51.982;9.232;2022-11-15T12:19:41;3.50;;;2.95;;
21202;SDS011;10759;51.982;9.232;2022-11-15T12:22:11;3.55;;;3.30;;
21202;SDS011;10759;51.982;9.232;2022-11-15T12:24:48;4.40;;;3.28;;
21202;SDS011;10759;51.982;9.232;2022-11-15T12:27:25;3.55;;;3.22;;
21202;SDS011;10759;51.982;9.232;2022-11-15T12:30:00;8.52;;;7.75;;
21202;SDS011;10759;51.982;9.232;2022-11-15T12:32:33;5.25;;;3.53;;
21202;SDS011;10759;51.982;9.232;2022-11-15T12:35:03;4.45;;;3.50;;
21202;SDS011;10759;51.982;9.232;2022-11-15T12:40:26;3.20;;;3.00;;
21202;SDS011;10759;51.982;9.232;2022-11-15T12:57:30;3.08;;;2.83;;
21202;SDS011;10759;51.982;9.232;2022-11-15T13:03:21;3.47;;;2.88;;
21202;SDS011;10759;51.982;9.232;2022-11-15T13:06:07;3.40;;;3.10;;
21202;SDS011;10759;51.982;9.232;2022-11-15T13:08:47;3.90;;;3.60;;
21202;SDS011;10759;51.982;9.232;2022-11-15T13:14:12;3.08;;;2.85;;
21202;SDS011;10759;51.982;9.232;2022-11-15T13:23:01;3.63;;;3.28;;
21202;SDS011;10759;51.982;9.232;2022-11-15T13:25:45;3.85;;;3.03;;
21202;SDS011;10759;51.982;9.232;2022-11-15T13:28:30;4.65;;;4.18;;
21202;SDS011;10759;51.982;9.232;2022-11-15T13:33:56;4.80;;;3.35;;
21202;SDS011;10759;51.982;9.232;2022-11-15T13:36:28;3.90;;;3.47;;
21202;SDS011;10759;51.982;9.232;2022-11-15T13:39:01;4.65;;;4.18;;
21202;SDS011;10759;51.982;9.232;2022-11-15T13:41:31;3.88;;;3.42;;
21202;SDS011;10759;51.982;9.232;2022-11-15T13:44:01;5.07;;;4.10;;
21202;SDS011;10759;51.982;9.232;2022-11-15T13:46:32;4.30;;;3.90;;
21202;SDS011;10759;51.982;9.232;2022-11-15T13:51:33;5.47;;;5.00;;
21202;SDS011;10759;51.982;9.232;2022-11-15T13:54:07;6.18;;;4.43;;
21202;SDS011;10759;51.982;9.232;2022-11-15T13:56:44;5.07;;;4.10;;
21202;SDS011;10759;51.982;9.232;2022-11-15T13:59:20;4.85;;;4.45;;
21202;SDS011;10759;51.982;9.232;2022-11-15T14:01:54;4.30;;;3.75;;
21202;SDS011;10759;51.982;9.232;2022-11-15T14:04:24;5.40;;;4.32;;
21202;SDS011;10759;51.982;9.232;2022-11-15T14:06:56;4.90;;;4.10;;
21202;SDS011;10759;51.982;9.232;2022-11-15T14:11:59;4.35;;;4.00;;
21202;SDS011;10759;51.982;9.232;2022-11-15T14:14:29;3.58;;;3.25;;
21202;SDS011;10759;51.982;9.232;2022-11-15T14:16:59;5.13;;;3.58;;
21202;SDS011;10759;51.982;9.232;2022-11-15T14:19:35;12.10;;;10.95;;
21202;SDS011;10759;51.982;9.232;2022-11-15T14:22:12;10.23;;;9.45;;
21202;SDS011;10759;51.982;9.232;2022-11-15T14:24:43;4.68;;;4.25;;
21202;SDS011;10759;51.982;9.232;2022-11-15T14:27:15;4.20;;;3.83;;
21202;SDS011;10759;51.982;9.232;2022-11-15T14:29:48;4.80;;;3.88;;
21202;SDS011;10759;51.982;9.232;2022-11-15T14:32:18;3.72;;;3.40;;
21202;SDS011;10759;51.982;9.232;2022-11-15T14:34:48;3.67;;;3.35;;
21202;SDS011;10759;51.982;9.232;2022-11-15T14:37:21;4.05;;;3.35;;
21202;SDS011;10759;51.982;9.232;2022-11-15T14:39:51;4.00;;;3.70;;
21202;SDS011;10759;51.982;9.232;2022-11-15T14:42:20;3.67;;;3.38;;
21202;SDS011;10759;51.982;9.232;2022-11-15T14:44:51;3.85;;;3.40;;
21202;SDS011;10759;51.982;9.232;2022-11-15T14:47:21;6.03;;;4.50;;
21202;SDS011;10759;51.982;9.232;2022-11-15T14:49:49;3.85;;;3.50;;
21202;SDS011;10759;51.982;9.232;2022-11-15T14:52:22;5.32;;;4.55;;
21202;SDS011;10759;51.982;9.232;2022-11-15T14:54:57;4.75;;;4.18;;
21202;SDS011;10759;51.982;9.232;2022-11-15T14:57:25;5.13;;;4.18;;
21202;SDS011;10759;51.982;9.232;2022-11-15T14:59:53;4.80;;;4.40;;
21202;SDS011;10759;51.982;9.232;2022-11-15T15:02:24;18.67;;;16.80;;
21202;SDS011;10759;51.982;9.232;2022-11-15T15:04:53;26.80;;;24.10;;
21202;SDS011;10759;51.982;9.232;2022-11-15T15:07:21;10.80;;;9.48;;
21202;SDS011;10759;51.982;9.232;2022-11-15T15:09:49;4.80;;;3.67;;
21202;SDS011;10759;51.982;9.232;2022-11-15T15:12:18;5.57;;;4.50;;
21202;SDS011;10759;51.982;9.232;2022-11-15T15:14:47;6.47;;;4.35;;
21202;SDS011;10759;51.982;9.232;2022-11-15T15:17:17;6.15;;;4.55;;
21202;SDS011;10759;51.982;9.232;2022-11-15T15:19:46;6.05;;;5.40;;
21202;SDS011;10759;51.982;9.232;2022-11-15T15:22:15;9.93;;;8.03;;
21202;SDS011;10759;51.982;9.232;2022-11-15T15:24:45;9.48;;;6.72;;
21202;SDS011;10759;51.982;9.232;2022-11-15T15:27:14;5.20;;;4.03;;
21202;SDS011;10759;51.982;9.232;2022-11-15T15:29:41;3.58;;;3.25;;
21202;SDS011;10759;51.982;9.232;2022-11-15T15:32:09;2.95;;;2.70;;
21202;SDS011;10759;51.982;9.232;2022-11-15T15:34:39;3.53;;;3.22;;
21202;SDS011;10759;51.982;9.232;2022-11-15T15:37:11;4.97;;;3.17;;
21202;SDS011;10759;51.982;9.232;2022-11-15T15:39:50;3.20;;;2.97;;
21202;SDS011;10759;51.982;9.232;2022-11-15T15:42:19;2.83;;;2.63;;
21202;SDS011;10759;51.982;9.232;2022-11-15T15:44:48;3.92;;;3.03;;
21202;SDS011;10759;51.982;9.232;2022-11-15T15:47:17;3.53;;;3.20;;
21202;SDS011;10759;51.982;9.232;2022-11-15T15:49:47;3.05;;;2.75;;
21202;SDS011;10759;51.982;9.232;2022-11-15T15:52:17;3.60;;;3.30;;
21202;SDS011;10759;51.982;9.232;2022-11-15T15:54:45;2.88;;;2.67;;
21202;SDS011;10759;51.982;9.232;2022-11-15T15:57:13;3.28;;;2.92;;
21202;SDS011;10759;51.982;9.232;2022-11-15T15:59:41;5.07;;;4.57;;
21202;SDS011;10759;51.982;9.232;2022-11-15T16:02:10;4.70;;;4.25;;
21202;SDS011;10759;51.982;9.232;2022-11-15T16:04:39;9.30;;;8.40;;
21202;SDS011;10759;51.982;9.232;2022-11-15T16:07:08;17.20;;;12.27;;
21202;SDS011;10759;51.982;9.232;2022-11-15T16:09:44;9.80;;;8.80;;
21202;SDS011;10759;51.982;9.232;2022-11-15T16:12:27;5.93;;;5.28;;
21202;SDS011;10759;51.982;9.232;2022-11-15T16:14:56;6.30;;;5.78;;
21202;SDS011;10759;51.982;9.232;2022-11-15T16:17:25;6.88;;;5.78;;
21202;SDS011;10759;51.982;9.232;2022-11-15T16:19:59;6.88;;;6.28;;
21202;SDS011;10759;51.982;9.232;2022-11-15T16:22:28;6.03;;;5.50;;
21202;SDS011;10759;51.982;9.232;2022-11-15T16:24:57;7.15;;;5.10;;
21202;SDS011;10759;51.982;9.232;2022-11-15T16:27:25;5.20;;;3.65;;
21202;SDS011;10759;51.982;9.232;2022-11-15T16:29:53;3.90;;;3.58;;
21202;SDS011;10759;51.982;9.232;2022-11-15T16:32:21;4.97;;;3.80;;
21202;SDS011;10759;51.982;9.232;2022-11-15T16:34:50;3.67;;;3.38;;
21202;SDS011;10759;51.982;9.232;2022-11-15T16:37:20;4.40;;;3.42;;
21202;SDS011;10759;51.982;9.232;2022-11-15T16:39:49;4.95;;;4.55;;
21202;SDS011;10759;51.982;9.232;2022-11-15T16:42:24;4.13;;;3.50;;
21202;SDS011;10759;51.982;9.232;2022-11-15T16:44:52;5.05;;;3.50;;
21202;SDS011;10759;51.982;9.232;2022-11-15T16:47:20;3.90;;;3.45;;
21202;SDS011;10759;51.982;9.232;2022-11-15T16:49:48;4.30;;;3.90;;
21202;SDS011;10759;51.982;9.232;2022-11-15T16:52:16;4.63;;;4.03;;
21202;SDS011;10759;51.982;9.232;2022-11-15T16:54:47;7.22;;;6.28;;
21202;SDS011;10759;51.982;9.232;2022-11-15T16:57:15;8.73;;;7.80;;